This is the latest recevied weather packets stored in our database for station/object WX6HNX-4. If no packets are shown the sender has not sent any weather packets the latest 10 day(s).
| Time | Temp. | Humidity | Pressure | Rain* | Wind** | Luminosity | Snow |
|---|---|---|---|---|---|---|---|
| 1777873334 | 15.56° C | 55% | 1005.2 hPa | 0 mm | - | - | - |
| 1777872502 | 16.11° C | 55% | 1005.2 hPa | 0 mm | - | - | - |
| 1777872201 | 16.11° C | 54% | 1005.2 hPa | 0 mm | - | - | - |
| 1777871901 | 16.11° C | 54% | 1005 hPa | 0 mm | - | - | - |
| 1777871303 | 16.11° C | 54% | 1005.2 hPa | 0 mm | - | - | - |
| 1777870102 | 16.11° C | 53% | 1004.7 hPa | 0 mm | - | - | - |
| 1777868601 | 16.67° C | 53% | 1004.2 hPa | 0 mm | - | - | - |
| 1777867524 | 16.67° C | 52% | 1003.8 hPa | 0 mm | - | - | - |
| 1777867224 | 17.22° C | 52% | 1003.8 hPa | 0 mm | - | - | - |
| 1777864929 | 17.22° C | 52% | 1003.1 hPa | 0 mm | - | - | - |
| 1777857368 | 21.11° C | 49% | 1000.6 hPa | 0 mm | - | - | - |
| 1777839554 | 20° C | 53% | 1001.8 hPa | 0 mm | - | - | - |
| 1777832079 | 17.22° C | 62% | 1003 hPa | 0 mm | - | - | - |
| 1777830879 | 17.22° C | 64% | 1003.2 hPa | 0 mm | - | - | - |
| 1777830580 | 16.67° C | 65% | 1003.3 hPa | 0 mm | - | - | - |
| 1777828864 | 15.56° C | 69% | 1003.5 hPa | 0 mm | - | - | - |
| 1777828263 | 15.56° C | 68% | 1003.5 hPa | 0 mm | - | - | - |
| 1777827363 | 15.56° C | 68% | 1003.4 hPa | 0 mm | - | - | - |
| 1777827063 | 15.56° C | 69% | 1003.4 hPa | 0 mm | - | - | - |
| 1777826162 | 15° C | 70% | 1003.3 hPa | 0 mm | - | - | - |
| 1777825862 | 15° C | 70% | 1003.3 hPa | 0 mm | - | - | - |
| 1777825261 | 14.44° C | 72% | 1003.1 hPa | 0 mm | - | - | - |
| 1777824960 | 14.44° C | 71% | 1003 hPa | 0 mm | - | - | - |
| 1777824360 | 14.44° C | 72% | 1003 hPa | 0 mm | - | - | - |
| 1777823055 | 15° C | 70% | 1002.6 hPa | 0 mm | - | - | - |
* Rain latest hour (hover to see other rain measurements)
** Current wind speed in m/s (hover to see current wind gust speed)